Time;durP1;ratioP1;P1;durP2;ratioP2;P2;SDS_P1;SDS_P2;PMS_P1;PMS_P2;Temp;Humidity;BMP_temperature;BMP_pressure;BME280_temperature;BME280_humidity;BME280_pressure;Samples;Min_cycle;Max_cycle;Signal;HPM_P1;HPM_P2
2024/01/23 00:02:10;;;;;;;13.70;5.80;;;;;;;1.89;55.75;101666.16;106678;1257;60479;-79
2024/01/23 00:04:38;;;;;;;12.00;4.20;;;;;;;1.96;55.74;101667.91;106302;1257;65080;-82
2024/01/23 00:07:06;;;;;;;8.10;3.20;;;;;;;1.98;55.71;101665.95;106439;1256;61417;-80
2024/01/23 00:09:33;;;;;;;15.60;5.30;;;;;;;1.97;55.54;101666.15;105721;1256;63789;-80
2024/01/23 00:12:02;;;;;;;12.30;6.10;;;;;;;1.94;55.62;101654.98;106245;1259;60464;-80
2024/01/23 00:14:30;;;;;;;12.80;5.40;;;;;;;1.91;55.66;101650.02;105858;1256;60415;-78
2024/01/23 00:16:57;;;;;;;15.90;5.40;;;;;;;1.89;55.70;101646.27;106555;1256;64987;-82
2024/01/23 00:19:25;;;;;;;10.90;4.20;;;;;;;1.85;55.73;101647.05;108258;1256;61596;-79
2024/01/23 00:21:53;;;;;;;13.40;5.70;;;;;;;1.84;55.84;101646.71;109000;1255;62491;-81
2024/01/23 00:24:20;;;;;;;12.60;5.80;;;;;;;1.81;55.93;101639.35;108934;1256;58156;-81
2024/01/23 00:26:48;;;;;;;14.80;6.70;;;;;;;1.81;55.84;101643.85;107007;1256;60514;-79
2024/01/23 00:29:15;;;;;;;9.20;3.70;;;;;;;1.86;55.85;101643.20;105804;1256;66922;-78
2024/01/23 00:31:43;;;;;;;10.50;3.90;;;;;;;1.96;55.82;101640.90;105916;1256;65480;-84
2024/01/23 00:34:11;;;;;;;10.00;4.40;;;;;;;2.02;55.72;101632.27;107218;1261;63244;-80
2024/01/23 00:36:38;;;;;;;13.80;5.00;;;;;;;2.05;55.71;101630.98;105950;1260;60467;-80
2024/01/23 00:39:06;;;;;;;10.80;4.30;;;;;;;2.04;55.81;101626.67;106348;1256;60387;-82
2024/01/23 00:41:34;;;;;;;11.10;5.10;;;;;;;2.04;55.70;101623.41;105780;1261;64971;-79
2024/01/23 00:44:02;;;;;;;13.30;5.20;;;;;;;2.01;55.78;101607.90;105740;1257;61409;-81
2024/01/23 00:46:29;;;;;;;15.30;5.40;;;;;;;1.99;55.86;101601.73;105716;1256;63743;-82
2024/01/23 00:48:57;;;;;;;12.00;5.10;;;;;;;1.95;55.92;101604.07;105844;1262;60445;-81
2024/01/23 00:51:24;;;;;;;16.30;6.20;;;;;;;1.92;56.06;101602.59;105852;1256;60574;-81
2024/01/23 00:53:52;;;;;;;10.10;4.60;;;;;;;1.86;56.11;101593.73;105759;1261;65022;-81
2024/01/23 00:56:20;;;;;;;14.90;5.00;;;;;;;1.82;56.33;101581.71;105815;1257;61415;-79
2024/01/23 00:58:47;;;;;;;12.80;5.70;;;;;;;1.79;56.44;101576.42;105994;1257;63834;-78
2024/01/23 01:01:14;;;;;;;12.40;4.50;;;;;;;1.78;56.49;101577.98;106386;1257;60644;-78
2024/01/23 01:03:42;;;;;;;9.50;4.50;;;;;;;1.84;56.48;101580.95;106106;1257;60569;-82
2024/01/23 01:06:09;;;;;;;12.40;4.30;;;;;;;1.93;56.45;101582.31;106564;1260;64947;-79
2024/01/23 01:08:37;;;;;;;12.40;5.50;;;;;;;2.00;56.41;101578.50;105920;1256;61289;-81
2024/01/23 01:11:06;;;;;;;9.40;4.20;;;;;;;2.02;56.44;101572.74;105770;1257;63868;-81
2024/01/23 01:13:34;;;;;;;23.90;5.80;;;;;;;2.01;56.46;101563.42;105917;1260;60518;-81
2024/01/23 01:16:01;;;;;;;10.60;5.00;;;;;;;1.99;56.41;101558.96;106426;1256;60338;-79
2024/01/23 01:18:30;;;;;;;10.30;3.90;;;;;;;1.98;56.35;101565.41;105769;1256;64979;-82
2024/01/23 01:20:58;;;;;;;14.00;6.00;;;;;;;1.95;56.42;101558.73;106007;1256;61330;-80
2024/01/23 01:23:25;;;;;;;13.40;6.50;;;;;;;1.91;56.50;101552.59;106926;1256;62807;-79
2024/01/23 01:25:53;;;;;;;10.00;5.20;;;;;;;1.89;56.58;101546.94;109292;1256;57933;-82
2024/01/23 01:28:20;;;;;;;12.10;4.70;;;;;;;1.88;56.64;101539.17;108130;1256;59207;-85
2024/01/23 01:30:48;;;;;;;10.20;4.80;;;;;;;1.85;56.67;101535.61;106683;1257;65054;-84
2024/01/23 01:33:15;;;;;;;10.20;5.00;;;;;;;1.87;56.58;101534.17;106073;1260;60453;-84
2024/01/23 01:35:43;;;;;;;12.30;4.10;;;;;;;1.96;56.57;101529.81;105687;1259;63776;-84
2024/01/23 01:38:11;;;;;;;13.40;5.40;;;;;;;2.06;56.53;101522.62;105642;1258;60441;-82
2024/01/23 01:40:38;;;;;;;8.70;3.60;;;;;;;2.13;56.43;101514.48;105965;1257;60574;-83
2024/01/23 01:43:05;;;;;;;12.20;5.50;;;;;;;2.11;56.35;101509.33;105961;1262;63744;-83
2024/01/23 01:45:33;;;;;;;9.80;4.30;;;;;;;2.08;56.40;101510.28;105597;1256;60557;-82
2024/01/23 01:48:01;;;;;;;11.50;4.60;;;;;;;2.03;56.26;101503.64;105761;1261;62472;-81
2024/01/23 01:50:28;;;;;;;12.20;5.10;;;;;;;2.00;56.37;101497.85;105785;1259;60555;-84
2024/01/23 01:52:56;;;;;;;11.50;4.80;;;;;;;1.99;56.44;101491.98;105739;1262;60572;-83
2024/01/23 01:55:23;;;;;;;11.90;5.20;;;;;;;1.96;56.47;101496.40;106256;1260;63705;-84
2024/01/23 01:57:51;;;;;;;12.20;4.70;;;;;;;1.93;56.58;101501.50;106232;1262;61394;-80
2024/01/23 02:00:18;;;;;;;12.70;5.50;;;;;;;1.91;56.57;101500.87;105826;1257;63809;-79
2024/01/23 02:02:50;;;;;;;9.50;3.30;;;;;;;1.88;56.65;101496.60;105637;1257;60467;-80
2024/01/23 02:05:17;;;;;;;8.40;3.40;;;;;;;1.92;56.57;101496.84;105698;1260;60410;-77
2024/01/23 02:07:45;;;;;;;10.40;4.30;;;;;;;2.00;56.52;101505.28;105851;1257;64979;-82
2024/01/23 02:10:13;;;;;;;12.90;4.00;;;;;;;2.07;56.46;101511.68;106242;1262;61339;-82
2024/01/23 02:12:41;;;;;;;9.20;3.90;;;;;;;2.08;56.34;101513.05;106442;1260;62466;-79
2024/01/23 02:15:08;;;;;;;7.30;3.20;;;;;;;2.08;56.37;101514.27;105679;1262;60574;-81
2024/01/23 02:17:36;;;;;;;8.90;4.20;;;;;;;2.08;56.45;101513.92;105903;1257;60489;-84
2024/01/23 02:20:05;;;;;;;8.60;4.10;;;;;;;2.05;56.46;101506.55;105881;1260;64962;-83
2024/01/23 02:22:33;;;;;;;12.60;4.80;;;;;;;2.02;56.47;101502.11;106161;1257;61400;-83
2024/01/23 02:25:00;;;;;;;8.50;3.10;;;;;;;1.99;56.54;101496.14;106953;1256;63734;-83
2024/01/23 02:27:27;;;;;;;8.30;3.40;;;;;;;1.96;56.58;101490.88;107378;1257;60733;-83
2024/01/23 02:29:55;;;;;;;12.50;5.90;;;;;;;1.93;56.66;101487.66;108067;1257;60485;-81
2024/01/23 02:32:23;;;;;;;11.30;4.50;;;;;;;1.93;56.69;101486.95;105744;1262;64851;-81
2024/01/23 02:34:50;;;;;;;7.20;3.40;;;;;;;1.95;56.66;101482.21;109068;1256;61422;-80
2024/01/23 02:37:18;;;;;;;8.20;2.90;;;;;;;2.05;56.49;101476.59;109048;1256;62776;-81
2024/01/23 02:39:45;;;;;;;8.10;3.40;;;;;;;2.15;56.38;101478.74;106900;1258;60466;-84
2024/01/23 02:42:14;;;;;;;8.80;3.20;;;;;;;2.22;56.27;101472.87;105920;1258;60431;-82
2024/01/23 02:44:45;;;;;;;7.10;3.50;;;;;;;2.22;56.19;101471.45;105812;1260;64963;-81
2024/01/23 02:47:13;;;;;;;12.10;4.40;;;;;;;2.22;56.15;101469.04;105788;1262;60545;-84
2024/01/23 02:49:41;;;;;;;11.00;4.90;;;;;;;2.17;56.08;101458.95;105829;1263;62771;-81
2024/01/23 02:52:09;;;;;;;8.20;3.20;;;;;;;2.13;56.14;101445.92;106273;1256;60435;-81
2024/01/23 02:54:36;;;;;;;10.10;4.00;;;;;;;2.10;56.24;101452.77;105766;1262;256807;-84
2024/01/23 02:58:44;;;;;;;11.00;3.90;;;;;;;1.62;57.39;101440.16;102175;1296;601080;-59
2024/01/23 03:01:12;;;;;;;6.90;3.00;;;;;;;1.89;56.77;101434.64;104502;1267;59318;-60
2024/01/23 03:03:40;;;;;;;7.60;3.90;;;;;;;1.94;56.67;101429.12;104396;1273;59332;-63
2024/01/23 03:06:07;;;;;;;8.00;3.10;;;;;;;2.04;56.56;101432.13;104713;1271;63318;-61
2024/01/23 03:08:35;;;;;;;8.70;2.50;;;;;;;2.13;56.49;101427.25;104451;1273;61404;-62
2024/01/23 03:11:03;;;;;;;8.90;3.40;;;;;;;2.16;56.40;101427.67;104687;1270;63823;-61
2024/01/23 03:13:30;;;;;;;9.20;4.60;;;;;;;2.16;56.41;101429.04;106523;1269;253516;-61
2024/01/23 03:15:58;;;;;;;10.40;4.40;;;;;;;2.16;56.37;101418.81;104363;1269;59911;-62
2024/01/23 03:18:26;;;;;;;10.70;5.00;;;;;;;2.16;56.34;101423.15;104439;1269;63374;-60
2024/01/23 03:20:54;;;;;;;8.40;3.50;;;;;;;2.14;56.31;101417.66;104524;1269;60158;-65
2024/01/23 03:23:21;;;;;;;9.10;3.70;;;;;;;2.12;56.38;101417.90;104506;1267;62479;-59
2024/01/23 03:25:49;;;;;;;9.30;3.20;;;;;;;2.11;56.43;101418.63;104449;1267;59742;-58
2024/01/23 03:28:16;;;;;;;8.10;3.00;;;;;;;2.09;56.47;101413.84;104495;1269;59660;-57
2024/01/23 03:30:44;;;;;;;9.20;3.00;;;;;;;2.06;56.47;101413.23;104500;1269;73018;-59
2024/01/23 03:33:12;;;;;;;9.60;3.40;;;;;;;2.06;56.53;101413.05;104524;1264;61377;-59
2024/01/23 03:35:40;;;;;;;9.50;2.70;;;;;;;2.10;56.32;101409.65;104405;1267;64312;-58
2024/01/23 03:38:07;;;;;;;6.90;2.00;;;;;;;2.19;56.20;101409.39;105560;1270;60274;-59
2024/01/23 03:40:36;;;;;;;11.90;4.90;;;;;;;2.28;56.06;101411.41;104928;1269;59740;-60
2024/01/23 03:43:04;;;;;;;6.80;3.30;;;;;;;2.32;55.99;101416.48;104478;1269;64147;-58
2024/01/23 03:45:31;;;;;;;10.70;2.70;;;;;;;2.32;56.00;101414.23;104896;1269;61321;-59
2024/01/23 03:48:01;;;;;;;8.00;3.00;;;;;;;2.31;56.04;101414.07;104563;1270;63743;-59
2024/01/23 03:50:29;;;;;;;10.50;3.80;;;;;;;2.29;56.00;101415.00;104531;1267;59782;-59
2024/01/23 03:52:57;;;;;;;8.30;3.60;;;;;;;2.26;55.87;101409.55;106853;1269;59769;-56
2024/01/23 03:55:25;;;;;;;12.30;4.10;;;;;;;2.19;55.89;101404.02;104471;1270;64336;-56
2024/01/23 03:57:53;;;;;;;9.50;3.70;;;;;;;2.19;55.91;101413.02;104577;1272;60411;-57
2024/01/23 04:00:21;;;;;;;9.80;4.70;;;;;;;2.19;55.97;101417.88;104509;1269;63725;-58
2024/01/23 04:02:48;;;;;;;10.90;3.60;;;;;;;2.14;56.05;101413.70;104595;1269;60568;-57
2024/01/23 04:05:16;;;;;;;7.80;2.80;;;;;;;2.14;56.04;101410.73;104773;1266;59714;-58
2024/01/23 04:07:43;;;;;;;8.90;3.50;;;;;;;2.24;56.02;101408.05;104763;1267;64180;-58
2024/01/23 04:10:11;;;;;;;7.60;3.20;;;;;;;2.31;55.93;101415.80;104786;1266;61358;-58
2024/01/23 04:12:40;;;;;;;11.00;3.50;;;;;;;2.32;55.94;101408.34;105039;1264;63735;-57
2024/01/23 04:15:08;;;;;;;7.10;3.60;;;;;;;2.29;55.94;101405.82;104796;1268;59675;-57
2024/01/23 04:17:38;;;;;;;11.30;4.20;;;;;;;2.28;55.89;101408.98;105095;1266;59817;-58
2024/01/23 04:20:06;;;;;;;13.00;5.10;;;;;;;2.27;55.94;101410.05;107416;1268;64083;-58
2024/01/23 04:22:35;;;;;;;12.20;5.10;;;;;;;2.25;55.97;101414.08;105186;1264;60154;-58
2024/01/23 04:25:03;;;;;;;22.10;9.00;;;;;;;2.23;55.93;101414.29;105275;1268;64255;-58
2024/01/23 04:27:31;;;;;;;14.10;5.90;;;;;;;2.22;55.98;101408.96;106037;1263;59777;-58
2024/01/23 04:30:01;;;;;;;15.70;5.80;;;;;;;2.19;56.06;101412.34;105184;1266;59622;-58
2024/01/23 04:32:28;;;;;;;10.00;4.50;;;;;;;2.16;56.09;101407.41;105349;1260;64664;-57
2024/01/23 04:34:56;;;;;;;39.70;6.30;;;;;;;2.12;56.16;101402.84;104965;1261;61405;-58
2024/01/23 04:37:24;;;;;;;9.00;3.20;;;;;;;2.17;56.16;101402.36;105009;1257;63919;-59
2024/01/23 04:39:51;;;;;;;9.60;4.40;;;;;;;2.27;56.05;101395.85;104808;1261;59720;-57
2024/01/23 04:42:21;;;;;;;7.90;3.30;;;;;;;2.34;55.98;101392.87;105049;1256;59761;-58
2024/01/23 04:44:49;;;;;;;9.70;3.90;;;;;;;2.37;55.88;101391.71;105988;1263;64604;-59
2024/01/23 04:47:17;;;;;;;8.30;3.50;;;;;;;2.38;55.87;101394.82;105061;1263;61368;-58
2024/01/23 04:49:45;;;;;;;11.00;5.50;;;;;;;2.36;55.85;101403.55;105255;1260;62605;-60
2024/01/23 04:52:12;;;;;;;9.40;3.50;;;;;;;2.33;55.83;101397.75;105350;1257;59684;-58
2024/01/23 04:54:41;;;;;;;14.40;4.80;;;;;;;2.28;55.92;101392.85;105134;1261;59897;-58
2024/01/23 04:57:10;;;;;;;8.70;3.20;;;;;;;2.25;55.92;101400.75;105050;1263;64110;-59
2024/01/23 04:59:37;;;;;;;11.30;4.20;;;;;;;2.20;55.99;101403.12;105401;1262;60120;-60
2024/01/23 05:02:05;;;;;;;10.20;5.80;;;;;;;2.18;56.19;101404.05;105027;1258;62509;-57
2024/01/23 05:04:32;;;;;;;10.50;3.60;;;;;;;2.18;56.27;101405.63;105101;1260;59751;-60
2024/01/23 05:07:01;;;;;;;8.70;4.60;;;;;;;2.16;56.24;101410.70;105764;1257;59643;-58
2024/01/23 05:09:31;;;;;;;12.80;3.90;;;;;;;2.21;56.17;101413.66;105245;1261;62915;-60
2024/01/23 05:11:59;;;;;;;7.80;3.60;;;;;;;2.29;56.02;101411.17;105030;1257;61837;-59
2024/01/23 05:14:27;;;;;;;8.10;3.60;;;;;;;2.37;55.88;101412.16;105080;1263;63804;-60
2024/01/23 05:16:54;;;;;;;11.80;4.60;;;;;;;2.40;55.91;101408.62;105175;1258;59614;-61
2024/01/23 05:19:22;;;;;;;9.80;4.00;;;;;;;2.43;55.86;101398.48;105894;1258;59794;-58
2024/01/23 05:21:50;;;;;;;10.80;3.10;;;;;;;2.44;55.78;101395.18;105496;1260;64179;-60
2024/01/23 05:24:18;;;;;;;8.30;3.30;;;;;;;2.41;55.77;101398.36;105248;1254;60075;-59
2024/01/23 05:26:45;;;;;;;8.70;3.40;;;;;;;2.37;55.81;101396.91;105369;1261;63807;-60
2024/01/23 05:29:13;;;;;;;8.90;3.80;;;;;;;2.34;55.92;101386.98;105201;1254;60419;-60
2024/01/23 05:31:41;;;;;;;15.00;6.50;;;;;;;2.32;56.05;101383.55;105054;1253;60937;-58
2024/01/23 05:34:09;;;;;;;12.60;5.20;;;;;;;2.32;56.14;101385.65;105209;1253;64061;-58
2024/01/23 05:36:36;;;;;;;21.30;8.40;;;;;;;2.30;56.15;101387.08;107946;1254;61405;-58
2024/01/23 05:39:04;;;;;;;13.30;5.20;;;;;;;2.28;56.30;101382.65;105208;1257;62439;-60
2024/01/23 05:41:32;;;;;;;10.00;3.90;;;;;;;2.33;56.26;101381.98;105243;1253;59762;-60
2024/01/23 05:43:59;;;;;;;9.70;4.10;;;;;;;2.43;56.19;101383.96;105784;1254;60353;-56
2024/01/23 05:46:27;;;;;;;7.90;3.60;;;;;;;2.51;56.21;101385.25;105268;1261;64758;-59
2024/01/23 05:48:55;;;;;;;12.50;6.00;;;;;;;2.55;56.18;101381.31;105850;1254;61457;-58
2024/01/23 05:51:22;;;;;;;13.80;5.50;;;;;;;2.58;56.14;101383.66;105319;1260;64302;-58
2024/01/23 05:53:50;;;;;;;12.50;5.70;;;;;;;2.57;56.06;101381.09;109133;1254;59541;-58
2024/01/23 05:56:18;;;;;;;8.60;4.10;;;;;;;2.56;56.06;101380.07;106069;1258;59763;-60
2024/01/23 05:58:45;;;;;;;7.60;3.70;;;;;;;2.55;56.11;101380.10;106178;1260;64113;-59
2024/01/23 06:01:13;;;;;;;8.30;3.40;;;;;;;2.55;56.23;101383.58;105324;1260;61299;-59
2024/01/23 06:03:41;;;;;;;7.90;3.30;;;;;;;2.51;56.32;101385.59;105511;1254;64302;-59
2024/01/23 06:06:10;;;;;;;7.50;3.30;;;;;;;2.49;56.42;101392.41;105350;1254;59662;-56
2024/01/23 06:08:38;;;;;;;8.30;3.70;;;;;;;2.49;56.37;101388.27;105547;1260;59682;-59
2024/01/23 06:11:05;;;;;;;6.40;3.10;;;;;;;2.54;56.40;101385.34;106292;1254;62818;-60
2024/01/23 06:13:33;;;;;;;9.50;3.50;;;;;;;2.63;56.39;101388.52;105247;1254;60105;-56
2024/01/23 06:16:00;;;;;;;7.90;4.00;;;;;;;2.71;56.30;101388.12;105088;1254;63717;-58
2024/01/23 06:18:30;;;;;;;13.40;4.60;;;;;;;2.73;56.33;101385.80;105785;1254;59650;-60
2024/01/23 06:20:58;;;;;;;10.50;4.20;;;;;;;2.73;56.32;101384.76;106629;1254;59800;-61
2024/01/23 06:23:25;;;;;;;11.30;4.10;;;;;;;2.72;56.34;101379.92;105282;1260;64106;-57
2024/01/23 06:25:53;;;;;;;10.60;4.20;;;;;;;2.70;56.31;101372.19;105948;1254;61446;-60
2024/01/23 06:28:23;;;;;;;9.20;4.10;;;;;;;2.70;56.31;101367.70;105389;1254;63922;-63
2024/01/23 06:30:50;;;;;;;14.60;4.70;;;;;;;2.70;56.37;101370.13;106055;1254;59617;-60
2024/01/23 06:33:19;;;;;;;11.00;3.50;;;;;;;2.69;56.46;101368.42;105232;1255;59634;-60
2024/01/23 06:35:47;;;;;;;12.40;4.10;;;;;;;2.68;56.54;101367.23;105072;1254;62815;-58
2024/01/23 06:38:14;;;;;;;12.30;4.90;;;;;;;2.68;56.66;101363.95;105190;1259;60236;-59
2024/01/23 06:40:42;;;;;;;7.70;3.20;;;;;;;2.75;56.52;101362.17;105140;1260;62505;-59
2024/01/23 06:43:09;;;;;;;10.90;3.30;;;;;;;2.85;56.33;101360.98;105206;1254;59765;-60
2024/01/23 06:45:37;;;;;;;7.20;3.70;;;;;;;2.93;56.27;101369.05;105282;1254;59666;-59
2024/01/23 06:48:05;;;;;;;11.20;5.20;;;;;;;2.95;56.31;101365.70;105200;1254;62840;-57
2024/01/23 06:50:33;;;;;;;10.80;4.40;;;;;;;2.95;56.27;101367.75;105582;1254;61442;-59
2024/01/23 06:53:00;;;;;;;10.30;4.00;;;;;;;2.95;56.23;101368.80;106408;1254;66420;-59
2024/01/23 06:55:28;;;;;;;10.30;4.10;;;;;;;2.94;56.19;101366.93;105877;1254;59561;-59
2024/01/23 06:57:56;;;;;;;8.70;4.10;;;;;;;2.93;56.06;101365.60;106697;1254;59666;-60
2024/01/23 07:00:23;;;;;;;10.20;3.50;;;;;;;2.94;56.06;101365.73;106752;1254;64652;-61
2024/01/23 07:02:51;;;;;;;10.30;4.60;;;;;;;2.94;56.03;101358.61;106091;1254;61614;-59
2024/01/23 07:05:18;;;;;;;7.70;3.20;;;;;;;2.96;55.97;101364.45;105035;1254;63736;-59
2024/01/23 07:07:46;;;;;;;8.40;3.60;;;;;;;2.96;56.08;101358.36;105099;1254;60699;-57
2024/01/23 07:10:14;;;;;;;12.60;3.80;;;;;;;2.95;56.02;101361.34;105014;1260;60693;-60
2024/01/23 07:12:42;;;;;;;9.50;3.70;;;;;;;3.02;55.83;101366.33;105032;1254;65556;-60
2024/01/23 07:15:10;;;;;;;9.80;4.20;;;;;;;3.10;55.63;101363.11;105064;1254;61476;-58
2024/01/23 07:17:37;;;;;;;7.80;3.20;;;;;;;3.17;55.47;101360.27;107966;1254;63697;-64
2024/01/23 07:20:09;;;;;;;11.30;6.20;;;;;;;3.20;55.36;101364.86;105212;1254;60524;-59
2024/01/23 07:22:37;;;;;;;13.90;4.90;;;;;;;3.19;55.37;101365.27;105525;1255;60503;-59
2024/01/23 07:25:04;;;;;;;18.80;7.30;;;;;;;3.17;55.25;101358.73;105289;1257;65499;-59
2024/01/23 07:27:34;;;;;;;10.60;3.80;;;;;;;3.15;55.23;101359.65;106477;1254;61728;-61
2024/01/23 07:30:03;;;;;;;11.00;4.70;;;;;;;3.11;55.22;101362.37;105249;1254;63665;-61
2024/01/23 07:32:30;;;;;;;13.70;3.80;;;;;;;3.08;55.24;101360.58;105611;1254;61018;-60
2024/01/23 07:34:58;;;;;;;7.40;3.30;;;;;;;3.07;55.33;101368.95;105184;1254;60553;-60
2024/01/23 07:37:26;;;;;;;9.00;4.50;;;;;;;3.06;55.30;101372.96;105246;1253;64976;-59
2024/01/23 07:39:53;;;;;;;7.30;2.70;;;;;;;3.04;55.41;101369.04;105181;1254;61446;-62
2024/01/23 07:42:21;;;;;;;5.90;2.80;;;;;;;3.07;55.36;101364.41;105115;1259;64322;-58
2024/01/23 07:44:49;;;;;;;14.10;4.40;;;;;;;3.16;55.39;101360.66;105148;1254;60539;-58
2024/01/23 07:47:16;;;;;;;7.60;4.00;;;;;;;3.22;55.14;101368.44;105239;1259;60524;-57
2024/01/23 07:49:44;;;;;;;9.80;3.50;;;;;;;3.20;55.08;101361.58;105302;1253;64856;-60
2024/01/23 07:52:19;;;;;;;9.90;4.40;;;;;;;3.19;55.12;101370.97;105096;1254;61749;-58
2024/01/23 07:54:48;;;;;;;8.10;3.30;;;;;;;3.18;55.10;101375.86;105034;1254;62450;-57
2024/01/23 07:57:16;;;;;;;9.80;4.50;;;;;;;3.16;55.17;101375.90;105205;1254;60456;-60
2024/01/23 07:59:44;;;;;;;12.50;3.80;;;;;;;3.14;55.18;101377.02;106044;1259;60353;-60
2024/01/23 08:02:12;;;;;;;8.60;4.30;;;;;;;3.10;55.22;101380.97;105168;1254;64948;-57
2024/01/23 08:04:40;;;;;;;7.10;2.90;;;;;;;3.09;55.29;101374.93;105088;1258;60341;-58
2024/01/23 08:07:11;;;;;;;11.00;4.60;;;;;;;3.21;55.19;101381.83;109181;1253;64526;-60
2024/01/23 08:09:39;;;;;;;8.00;3.60;;;;;;;3.33;55.05;101378.82;109124;1254;59782;-60
2024/01/23 08:12:11;;;;;;;9.10;4.70;;;;;;;3.39;54.89;101379.34;109167;1254;58333;-58
2024/01/23 08:14:43;;;;;;;10.20;5.60;;;;;;;3.39;54.85;101374.81;105384;1259;72610;-61
2024/01/23 08:17:12;;;;;;;10.20;3.90;;;;;;;3.38;54.91;101372.25;109167;1253;64015;-62
2024/01/23 08:19:45;;;;;;;10.40;4.00;;;;;;;3.41;55.01;101373.20;109132;1254;63087;-61
2024/01/23 08:22:15;;;;;;;12.30;4.80;;;;;;;3.40;54.94;101374.42;105987;1254;60408;-60
2024/01/23 08:24:42;;;;;;;10.50;3.70;;;;;;;3.41;54.97;101381.49;105042;1253;60353;-58
2024/01/23 08:27:10;;;;;;;10.20;4.60;;;;;;;3.39;54.97;101382.62;105054;1253;65396;-60
2024/01/23 08:29:39;;;;;;;6.30;3.20;;;;;;;3.40;55.10;101379.29;105258;1254;72602;-57
2024/01/23 08:32:07;;;;;;;10.20;3.20;;;;;;;3.39;55.13;101370.83;105267;1254;64777;-60
2024/01/23 08:34:35;;;;;;;12.40;4.40;;;;;;;3.40;55.14;101374.59;105231;1260;61146;-59
2024/01/23 08:37:04;;;;;;;7.00;3.90;;;;;;;3.48;55.03;101374.66;105345;1257;60351;-58
2024/01/23 08:39:31;;;;;;;11.50;3.90;;;;;;;3.54;54.95;101371.50;105168;1254;65412;-59
2024/01/23 08:41:59;;;;;;;10.80;4.10;;;;;;;3.55;54.95;101368.19;105287;1254;61564;-58
2024/01/23 08:44:26;;;;;;;11.60;5.10;;;;;;;3.53;54.95;101365.80;106491;1254;74842;-60
2024/01/23 08:46:54;;;;;;;11.20;5.30;;;;;;;3.50;54.93;101367.30;105971;1254;60482;-59
2024/01/23 08:49:21;;;;;;;9.10;4.20;;;;;;;3.50;54.97;101369.73;105115;1254;60467;-61
2024/01/23 08:51:50;;;;;;;11.10;5.10;;;;;;;3.48;54.95;101370.84;105235;1254;76037;-60
2024/01/23 08:54:19;;;;;;;10.30;5.40;;;;;;;3.47;55.06;101372.10;105234;1259;60469;-63
2024/01/23 08:56:47;;;;;;;14.70;5.60;;;;;;;3.46;55.15;101367.98;105166;1254;74961;-60
2024/01/23 08:59:16;;;;;;;13.80;5.10;;;;;;;3.44;55.23;101367.55;105061;1253;60516;-56
2024/01/23 09:01:44;;;;;;;17.20;7.00;;;;;;;3.42;55.39;101365.34;105217;1259;60448;-59
2024/01/23 09:04:11;;;;;;;9.90;4.80;;;;;;;3.38;55.41;101367.75;104987;1254;72742;-62
2024/01/23 09:06:39;;;;;;;11.50;3.90;;;;;;;3.40;55.48;101369.73;107035;1254;72621;-59
2024/01/23 09:09:06;;;;;;;11.00;5.40;;;;;;;3.48;55.42;101367.40;105036;1257;64044;-58
2024/01/23 09:11:34;;;;;;;8.20;4.00;;;;;;;3.54;55.34;101363.86;106354;1256;61729;-59
2024/01/23 09:14:02;;;;;;;11.90;4.60;;;;;;;3.52;55.31;101360.99;105021;1254;60374;-60
2024/01/23 09:16:34;;;;;;;9.80;4.60;;;;;;;3.48;55.54;101359.39;105095;1254;64195;-60
2024/01/23 09:19:01;;;;;;;10.60;4.90;;;;;;;3.44;55.55;101362.48;105089;1256;60639;-64
2024/01/23 09:21:29;;;;;;;11.90;5.30;;;;;;;3.40;55.75;101362.98;106543;1256;72589;-60
2024/01/23 09:23:57;;;;;;;12.10;4.40;;;;;;;3.35;55.76;101362.62;105104;1253;60539;-62
2024/01/23 09:26:24;;;;;;;10.10;5.00;;;;;;;3.30;55.90;101363.83;106617;1253;60479;-59
2024/01/23 09:28:52;;;;;;;10.50;4.40;;;;;;;3.26;55.99;101366.38;105857;1254;64890;-59
2024/01/23 09:31:21;;;;;;;11.80;3.60;;;;;;;3.21;56.20;101367.10;105168;1254;61902;-63
2024/01/23 09:33:49;;;;;;;10.50;4.30;;;;;;;3.23;56.19;101366.52;105018;1259;62576;-60
2024/01/23 09:36:18;;;;;;;8.60;3.40;;;;;;;3.27;56.23;101365.48;105976;1258;60389;-59
2024/01/23 09:38:48;;;;;;;9.90;3.40;;;;;;;3.30;56.25;101364.36;105215;1256;60368;-67
2024/01/23 09:41:16;;;;;;;9.20;3.70;;;;;;;3.28;56.31;101363.04;105053;1261;67099;-60
2024/01/23 09:43:44;;;;;;;12.30;5.90;;;;;;;3.25;56.34;101367.15;105599;1254;69657;-63
2024/01/23 09:46:11;;;;;;;10.80;6.30;;;;;;;3.23;56.45;101363.02;105019;1253;74847;-59
2024/01/23 09:48:39;;;;;;;13.30;5.50;;;;;;;3.22;56.48;101365.67;105039;1260;60502;-62
2024/01/23 09:51:13;;;;;;;17.50;8.90;;;;;;;3.20;56.43;101360.53;105400;1257;60562;-59
2024/01/23 09:53:43;;;;;;;11.40;5.80;;;;;;;3.20;56.51;101359.33;105601;1253;65373;-63
2024/01/23 09:56:15;;;;;;;11.70;4.20;;;;;;;3.19;56.63;101354.52;105221;1257;63453;-61
2024/01/23 09:58:42;;;;;;;13.20;5.30;;;;;;;3.15;56.56;101352.55;105659;1255;64877;-59
2024/01/23 10:01:10;;;;;;;9.90;3.90;;;;;;;3.12;56.68;101350.23;105563;1256;60578;-60
2024/01/23 10:03:38;;;;;;;15.20;4.40;;;;;;;3.16;56.68;101346.10;105581;1258;61612;-61
2024/01/23 10:06:06;;;;;;;7.40;3.20;;;;;;;3.25;56.46;101341.12;105131;1260;76084;-62
2024/01/23 10:08:35;;;;;;;15.90;6.20;;;;;;;3.30;56.41;101337.13;105076;1259;60331;-60
2024/01/23 10:11:04;;;;;;;15.60;7.10;;;;;;;3.31;56.35;101338.64;105315;1254;63818;-57
2024/01/23 10:13:31;;;;;;;14.30;7.10;;;;;;;3.28;56.43;101335.80;105158;1253;60503;-58
2024/01/23 10:15:59;;;;;;;13.80;5.50;;;;;;;3.26;56.40;101332.08;105259;1254;60591;-61
2024/01/23 10:18:27;;;;;;;10.10;5.00;;;;;;;3.26;56.29;101328.44;105178;1258;67019;-61
2024/01/23 10:20:57;;;;;;;9.50;4.40;;;;;;;3.20;56.38;101334.17;105872;1254;61793;-56
2024/01/23 10:23:27;;;;;;;10.60;5.30;;;;;;;3.14;56.43;101341.13;105931;1254;74938;-60
2024/01/23 10:25:58;;;;;;;10.00;4.00;;;;;;;3.09;56.62;101338.88;105704;1256;60610;-61
2024/01/23 10:28:26;;;;;;;11.70;5.50;;;;;;;3.07;56.69;101342.41;106425;1254;60536;-60
2024/01/23 10:30:54;;;;;;;12.20;5.80;;;;;;;3.06;56.71;101340.38;104838;1253;65560;-60
2024/01/23 10:33:22;;;;;;;15.20;5.00;;;;;;;3.07;56.76;101338.92;104896;1259;61480;-59
2024/01/23 10:35:50;;;;;;;13.20;5.50;;;;;;;3.16;56.56;101330.14;104970;1255;74715;-60
2024/01/23 10:38:18;;;;;;;12.30;4.00;;;;;;;3.24;56.34;101328.33;105037;1256;60421;-62
2024/01/23 10:40:46;;;;;;;10.80;4.80;;;;;;;3.26;56.26;101325.98;105991;1253;60578;-61
2024/01/23 10:43:14;;;;;;;8.40;4.40;;;;;;;3.24;56.31;101321.73;105314;1254;67527;-61
2024/01/23 10:45:42;;;;;;;12.90;4.60;;;;;;;3.19;56.23;101319.80;105209;1260;63871;-60
2024/01/23 10:48:10;;;;;;;12.20;4.60;;;;;;;3.14;56.23;101326.20;104980;1254;65881;-62
2024/01/23 10:50:38;;;;;;;11.80;5.40;;;;;;;3.09;56.29;101323.28;104992;1259;62010;-58
2024/01/23 10:53:06;;;;;;;10.20;4.20;;;;;;;3.04;56.38;101325.17;104967;1253;60396;-62
2024/01/23 10:55:37;;;;;;;14.00;5.30;;;;;;;2.97;56.45;101322.48;104811;1254;67311;-60
2024/01/23 10:58:10;;;;;;;11.20;5.10;;;;;;;2.91;56.57;101320.59;104943;1259;61559;-60
2024/01/23 11:00:37;;;;;;;18.80;6.60;;;;;;;2.92;56.58;101330.27;109058;1253;66418;-60
2024/01/23 11:03:06;;;;;;;15.10;5.30;;;;;;;3.00;56.61;101330.16;108993;1254;58418;-63
2024/01/23 11:05:51;;;;;;;9.40;3.70;;;;;;;3.09;56.48;101326.59;108965;1256;58605;-66
2024/01/23 11:08:36;;;;;;;10.10;4.50;;;;;;;3.12;56.32;101326.98;108895;1253;74116;-60
2024/01/23 11:11:24;;;;;;;13.60;5.30;;;;;;;3.08;56.31;101320.55;108885;1253;73122;-61
2024/01/23 11:13:59;;;;;;;13.40;6.10;;;;;;;3.05;56.31;101329.65;109081;1253;75924;-60
2024/01/23 11:16:28;;;;;;;13.90;5.30;;;;;;;3.02;56.29;101328.55;105502;1259;60523;-59
2024/01/23 11:18:55;;;;;;;10.30;3.90;;;;;;;2.99;56.43;101323.77;105714;1253;60001;-61
2024/01/23 11:21:25;;;;;;;10.00;5.50;;;;;;;2.98;56.45;101317.92;105614;1254;74829;-60
2024/01/23 11:23:58;;;;;;;12.60;5.50;;;;;;;2.94;56.55;101313.21;105152;1254;72635;-60
2024/01/23 11:26:26;;;;;;;11.60;5.10;;;;;;;2.90;56.60;101320.95;105761;1256;64185;-59